Detroit, Michigan
Current Conditions -  °F | °C
As of 2:00 PM on Thursday 30 Oct 2014 (Local Time) from CYQG Reporting Station
Broken Clouds Broken Clouds  
Wind Chill: 10°   Ceiling: 4200
Heat Index: 10°   Visibility: 15mi
Dew Point:   Wind: 5mph
Humidity: 54%   Direction: 280°W
Pressure: 30.1"   Gusts: NA
Location:  42.33°N, 83.05°W
Report Text: CYQG 301800Z 28004KT 230V330 15SM BKN042 BKN270 10/01 A3010 RMK SC6CI1 SLP196
Loading
Personal Weather Stations






























Interactive Weather Map New forecast layout! Learn more

10-Day Weather Forecast

Advertisements
Track Severe Weather on mobile